Weather observations for the past three days for
Presidio Lely International Airport
Imperial (Metric)
Date Time (cdt) Wind (mph) Vis. (mi.) Weather Sky Cond. Temperature (ºF) Relative Humidity Wind Chill (°F) Heat Index (°F) Pressure Precipitation (in)
Air Dwpt 6 hour altimeter (in) sea level (mb) 1 hr 3 hr 6 hr
Max. Min.
09 10:15 SW 3 10.00 Fair CLR 75.2 37.4 25% 77 30 0.0
09 09:55 Calm 10.00 Fair CLR 73 36.9 27% 30 0.0
09 09:35 Calm 10.00 Fair CLR 70.7 37.2 29% 30 0.0
09 09:15 Calm 10.00 Fair CLR 68.2 37.2 32% 30 0.0
09 08:55 Calm 10.00 Fair CLR 66 36.7 34% 30 0.0
09 08:35 Calm 10.00 Fair CLR 64.4 36.9 36% 29.99 0.0
09 08:15 SW 6 10.00 Fair CLR 63.3 37.2 38% 29.98 0.0
09 07:55 Calm 10.00 Fair CLR 64 36.5 36% 29.97 0.0
09 07:35 N 3 10.00 Fair CLR 62.6 36.5 38% 29.97 0.0
09 07:15 N 6 10.00 Fair CLR 62.6 36.1 37% 29.96 0.0
09 06:55 N 8 10.00 Fair CLR 63.1 36.5 72 62.6 37% 29.96 0.0
09 06:35 N 8 10.00 Fair CLR 63.3 36.5 37% 29.95 0.0
09 06:15 N 8 10.00 Fair CLR 64.2 36.5 36% 29.94 0.0
09 05:55 N 7 10.00 Fair CLR 63 35.8 36% 29.94 0.0
09 05:35 NW 6 10.00 Fair CLR 62.6 35.8 37% 29.94 0.0
09 05:15 N 7 10.00 Fair CLR 64.4 36.1 35% 29.93 0.0
09 04:55 N 7 10.00 Fair CLR 64.4 36.1 35% 29.92 0.0
09 04:35 N 6 10.00 Fair CLR 64.6 36.5 35% 29.92 0.0
09 04:15 N 3 10.00 Fair CLR 65.3 36.5 35% 29.93 0.0
09 03:55 Calm 10.00 Fair CLR 66.4 36.5 33% 29.92 0.0
09 03:35 N 3 10.00 Fair CLR 67.1 36.7 33% 29.92 0.0
09 03:15 N 8 10.00 Fair CLR 67.3 36.9 33% 29.92 0.0
09 02:55 N 7 10.00 Fair CLR 67.8 37 32% 29.92 0.0
09 02:35 N 6 10.00 Fair CLR 68 37 32% 29.93 0.0
09 02:15 N 5 10.00 Fair CLR 68.9 36.9 31% 29.93 0.0
09 01:55 N 3 10.00 Fair CLR 70.3 37.4 30% 29.93 0.0
09 01:35 N 6 10.00 Fair CLR 70.5 36.5 29% 29.93 0.0
09 01:15 N 6 10.00 Fair CLR 71.6 36.3 28% 29.93 0.0
09 00:55 NE 5 10.00 Fair CLR 71.1 35.6 83.5 69.3 27% 29.93 0.0
09 00:35 N 7 10.00 Fair CLR 70.5 35.2 27% 29.93 0.0
09 00:15 N 6 10.00 Fair CLR 69.4 35.1 28% 29.93 0.0
08 23:55 Calm 10.00 Fair CLR 70 35.6 28% 29.93 0.0
08 23:35 N 5 10.00 Fair CLR 71.2 36.1 28% 29.93 0.0
08 23:15 N 5 10.00 Fair CLR 72.7 36.5 27% 29.93 0.0
08 22:55 Calm 10.00 Fair CLR 73.2 36.5 26% 29.92 0.0
08 22:35 SW 6 10.00 Fair CLR 73.4 36.5 26% 29.91 0.0
08 22:15 SW 7 10.00 Fair CLR 75.2 36.9 25% 77 29.91 0.0
08 21:55 SW 6 10.00 Fair CLR 75.2 35.8 24% 76 29.9 0.0
08 21:35 Calm 10.00 Fair CLR 75.7 35.2 23% 77 29.9 0.0
08 21:15 Calm 10.00 Fair CLR 77 35.6 22% 77 29.88 0.0
08 20:55 SW 8 10.00 Fair CLR 78.1 35.6 22% 78 29.87 0.0
08 20:35 W 12 10.00 Fair CLR 79 34.9 20% 78 29.88 0.0
08 20:15 W 14 G 20 10.00 Fair CLR 80.8 33.4 18% 79 29.89 0.0
08 19:55 NW 9 10.00 Fair CLR 81 32.9 18% 79 29.88 0.0
08 19:35 NW 16 G 26 10.00 Fair CLR 81.7 34.2 18% 80 29.88 0.0
08 19:15 NW 18 G 28 10.00 Fair CLR 82.4 36.5 19% 80 29.89 0.0
08 18:55 NW 21 G 32 10.00 Fair and Breezy CLR 84 37 91.4 79 19% 81 29.88 0.0
08 18:35 NW 26 G 38 10.00 Fair and Windy CLR 83.7 36 18% 81 29.87 0.0
08 17:55 W 28 G 40 10.00 Fair and Windy CLR 86.7 38.7 18% 83 29.84 0.0
08 17:35 W 33 G 43 4.00 Fair with Haze and Windy CLR 86.2 37.4 18% 83 29.83 0.0
08 17:15 W 18 G 25 10.00 Fair CLR 91.2 19.6 7% 87 29.82 0.0
08 16:55 S 13 G 18 10.00 Fair CLR 90.5 27.3 10% 86 29.81 0.0
08 16:35 SW 12 G 17 10.00 Fair CLR 90.3 31.3 12% 86 29.81 0.0
08 16:15 S 3 10.00 Fair CLR 88.7 34.3 14% 85 29.81 0.0
08 15:55 W 8 10.00 Fair CLR 88.3 34.9 15% 85 29.82 0.0
08 15:35 SW 8 G 16 10.00 Fair CLR 88 36 16% 84 29.83 0.0
08 15:15 SE 7 G 17 10.00 Fair CLR 87.8 30.9 13% 84 29.83 0.0
08 14:35 S 9 10.00 Fair CLR 86.7 40.1 19% 83 29.85 0.0
08 14:15 S 9 10.00 Fair CLR 84.2 46.8 27% 82 29.86 0.0
08 13:55 SW 7 10.00 Fair CLR 82.6 48.2 30% 81 29.87 0.0
08 13:35 S 5 10.00 Fair CLR 82 49.8 33% 81 29.88 0.0
08 13:15 Calm 10.00 Fair CLR 79.5 50.9 37% 79 29.9 0.0
08 12:35 S 6 10.00 Fair CLR 78.6 51.4 39% 79 29.92 0.0
08 12:15 Calm 10.00 Fair CLR 76.1 52.7 44% 78 29.93 0.0
08 11:55 Calm 10.00 Fair CLR 74.5 52.9 47% 29.94 0.0
08 11:35 Calm 10.00 Fair CLR 72.5 53.6 52% 29.95 0.0
08 11:15 SE 3 10.00 Fair CLR 71.1 53.6 54% 29.96 0.0
08 10:55 Calm 10.00 Fair CLR 70.2 53.8 56% 29.96 0.0
08 10:35 Calm 10.00 Fair CLR 68.5 54 60% 29.97 0.0
08 10:15 SE 3 10.00 Fair CLR 68.9 54.5 60% 29.97 0.0
08 09:55 Calm 10.00 Fair CLR 66.7 54 64% 29.98 0.0
08 09:35 Calm 10.00 Fair CLR 66 54 65% 29.98 0.0
08 09:15 Calm 10.00 Fair CLR 65.3 54.1 67% 29.97 0.0
08 08:35 E 6 10.00 Fair CLR 64.6 54.7 70% 29.97 0.0
08 08:15 NE 5 10.00 Fair CLR 62.8 54.7 75% 29.97 0.0
08 07:55 NE 5 10.00 Fair CLR 61.5 54.5 78% 29.96 0.0
08 07:35 NE 3 10.00 Fair CLR 60.8 54.5 80% 29.96 0.0
08 07:15 NE 6 10.00 Fair CLR 60.8 54.5 80% 29.96 0.0
08 06:55 NE 6 10.00 Fair CLR 60.8 54.5 65.5 60.8 80% 29.95 0.0
08 06:35 N 6 10.00 Fair CLR 60.8 54.5 80% 29.94 0.0
08 06:15 NE 6 10.00 Fair CLR 61 54.5 79% 29.94 0.0
08 05:55 NE 8 10.00 Fair CLR 61.7 54.5 77% 29.94 0.0
08 05:35 N 6 10.00 Fair CLR 61.9 54.5 77% 29.94 0.0
08 05:15 NE 8 10.00 Fair CLR 62.1 54.7 77% 29.93 0.0
08 04:55 NE 7 10.00 Fair CLR 62.1 54.1 75% 29.93 0.0
08 04:35 NE 9 10.00 Fair CLR 62.1 54 75% 29.93 0.0
08 04:15 NE 8 10.00 Fair CLR 62.2 54.3 75% 29.93 0.0
08 03:55 NE 8 G 17 10.00 Fair CLR 62.4 54 74% 29.94 0.0
08 03:35 NE 9 10.00 Fair CLR 63 53.6 72% 29.93 0.0
08 03:15 NE 9 10.00 Fair CLR 63 53.4 71% 29.93 0.0
08 02:55 NE 7 10.00 Fair CLR 63 53.2 71% 29.94 0.0
08 02:35 NE 9 10.00 Fair CLR 63.1 52.7 69% 29.94 0.0
08 02:15 NE 7 10.00 Fair CLR 63.5 52.3 67% 29.94 0.0
08 01:55 NE 9 10.00 Fair CLR 63.9 52.7 67% 29.94 0.0
08 01:35 NE 15 G 18 10.00 Fair CLR 64.4 52.7 66% 29.94 0.0
08 01:15 NE 16 G 22 10.00 Fair CLR 64.8 52.5 65% 29.93 0.0
08 00:55 NE 16 G 21 10.00 Fair CLR 65.5 52.7 83.1 65.5 64% 29.93 0.0
08 00:35 NE 15 G 22 10.00 Fair CLR 66 52.9 63% 29.92 0.0
08 00:15 NE 15 10.00 Fair CLR 66.2 52.7 62% 29.93 0.0
07 23:55 E 14 G 18 10.00 Fair CLR 67.6 52.7 59% 29.93 0.0
07 23:35 NE 12 G 21 10.00 Fair CLR 69.3 52.9 56% 29.92 0.0
07 23:15 NE 13 G 23 10.00 Fair CLR 71.1 52.7 52% 29.91 0.0
07 22:55 NE 16 G 22 10.00 Fair CLR 71.4 52.7 52% 29.91 0.0
07 22:35 NE 14 G 23 10.00 Fair CLR 71.6 52.7 51% 29.92 0.0
07 22:15 NE 13 10.00 Fair CLR 70.9 52.5 52% 29.91 0.0
07 21:55 NE 22 G 28 10.00 Fair and Breezy CLR 71.4 52.5 51% 29.89 0.0
07 21:35 NE 18 G 25 10.00 Fair CLR 72.5 52.5 50% 29.88 0.0
07 21:15 NE 16 G 28 10.00 Fair CLR 73.4 52.7 48% 29.86 0.0
07 20:55 NE 18 G 28 10.00 Fair CLR 73.8 52.7 48% 29.86 0.0
07 20:35 NE 22 G 35 10.00 Fair and Breezy CLR 74.8 52.5 46% 29.85 0.0
07 20:15 NE 25 G 32 10.00 Fair and Breezy CLR 76.5 52 43% 78 29.84 0.0
07 19:55 NE 25 G 30 10.00 Fair and Breezy CLR 78.6 52.2 40% 79 29.84 0.0
07 19:35 NE 21 G 29 10.00 Fair and Breezy CLR 80.8 52.3 37% 80 29.83 0.0
07 19:15 NE 20 G 28 10.00 Fair CLR 82.4 51.8 35% 81 29.83 0.0
07 18:35 NE 21 G 31 10.00 Fair and Breezy CLR 84.2 52.5 34% 83 29.83 0.0
07 18:15 NE 21 G 30 10.00 Fair and Breezy CLR 85.5 52.5 32% 84 29.84 0.0
07 17:55 NE 21 G 25 10.00 Fair and Breezy CLR 86.5 52.7 31% 84 29.84 0.0
07 17:35 NE 17 G 24 10.00 Fair CLR 88.2 52.9 30% 86 29.84 0.0
07 17:15 NE 20 G 26 10.00 Fair CLR 88.9 53.8 30% 87 29.85 0.0
07 16:55 NE 15 G 28 10.00 Fair CLR 89.2 52.9 29% 87 29.86 0.0
07 16:35 NE 14 G 23 10.00 Fair CLR 88.2 53.2 30% 86 29.87 0.0
07 16:15 E 16 G 23 10.00 Fair CLR 90 53.2 29% 88 29.87 0.0
07 15:55 E 5 10.00 Fair CLR 90.7 40.1 17% 87 29.88 0.0
07 15:35 E 9 G 16 10.00 Fair CLR 89.8 41.2 18% 86 29.89 0.0
07 15:15 E 3 10.00 Fair CLR 87.4 47.5 25% 84 29.9 0.0
07 14:55 Calm 10.00 Fair CLR 87.8 46.9 24% 85 29.92 0.0
07 14:35 Calm 10.00 Fair CLR 87.6 47.1 25% 85 29.93 0.0
07 14:15 N 7 G 17 10.00 Fair CLR 86.4 48.6 27% 84 29.93 0.0
07 13:55 SW 7 10.00 Fair CLR 85.3 47.1 27% 83 29.94 0.0
07 13:35 N 7 10.00 Fair CLR 84.6 47.1 27% 82 29.96 0.0
07 13:15 NE 7 10.00 Fair CLR 84.6 48 28% 82 29.97 0.0
07 12:55 SE 9 10.00 Fair CLR 84.4 49.3 84.4 69.1 30% 82 29.99 0.0
07 12:35 Calm 10.00 Fair CLR 81.5 48.6 32% 80 30 0.0
07 12:15 NE 9 10.00 Fair CLR 80.2 48.4 33% 80 30 0.0
07 11:55 NE 9 G 17 10.00 Fair CLR 81.7 46 29% 80 30.01 0.0
07 11:35 NE 10 G 17 10.00 Fair CLR 79.7 45 29% 79 30.02 0.0
07 11:15 NE 13 G 16 10.00 Fair CLR 79 44.6 30% 79 30.03 0.0
07 10:55 NE 10 10.00 Fair CLR 77.5 42.8 29% 78 30.04 0.0
07 10:35 NE 10 G 16 10.00 Fair CLR 77 41.2 28% 78 30.04 0.0
07 10:15 NE 9 10.00 Fair CLR 77.2 41 27% 78 30.04 0.0
07 09:55 N 10 G 16 10.00 Fair CLR 76.1 35.8 23% 77 30.03 0.0
07 09:35 N 10 G 16 10.00 Fair CLR 75.6 34.9 23% 77 30.03 0.0
07 09:15 N 10 10.00 Fair CLR 75.2 32 21% 76 30.03 0.0
07 08:55 N 9 10.00 Fair CLR 75 35.6 24% 76 30.03 0.0
07 08:35 N 3 10.00 Fair CLR 72.5 39.6 30% 30.02 0.0
07 08:15 Calm 10.00 Fair CLR 70.2 41 35% 30.02 0.0
07 07:55 NE 5 10.00 Fair CLR 69.6 41.9 37% 30.01 0.0
07 07:35 NE 3 10.00 Fair CLR 69.8 42.1 37% 30 0.0
07 07:15 Calm 10.00 Fair CLR 70.2 41.9 36% 30 0.0
07 06:55 N 6 10.00 Fair CLR 70.5 41.2 76.3 67.1 35% 29.99 0.0
07 06:35 N 5 10.00 Fair CLR 69.8 40.1 34% 29.99 0.0
07 06:15 N 3 10.00 Fair CLR 67.3 41.9 40% 29.99 0.0
07 05:55 Calm 10.00 Fair CLR 68.9 42.8 39% 29.99 0.0
07 05:35 Calm 10.00 Fair CLR 69.4 42.4 38% 29.99 0.0
07 05:15 NE 6 10.00 Fair CLR 71.4 41.9 35% 29.98 0.0
07 04:55 SE 3 10.00 Fair CLR 71.6 39.2 31% 29.98 0.0
07 04:35 N 10 10.00 Fair CLR 72.3 38.8 30% 29.97 0.0
07 04:15 N 13 10.00 Fair CLR 72 37.9 29% 29.96 0.0
07 03:55 N 8 10.00 Fair CLR 71.6 38.1 30% 29.96 0.0
07 03:35 N 6 10.00 Fair CLR 73.4 39.9 30% 29.97 0.0
07 03:15 N 14 G 18 10.00 Fair CLR 73.9 39 28% 29.97 0.0
07 02:55 N 10 10.00 Fair CLR 74.3 37.8 27% 29.97 0.0
07 02:15 NE 9 10.00 Fair CLR 75.2 42.3 31% 77 29.98 0.0
07 01:55 N 6 10.00 Fair CLR 75.4 42.6 31% 77 29.98 0.0
07 01:35 N 7 10.00 Fair CLR 76.1 35.2 23% 77 29.97 0.0
07 01:15 N 6 10.00 Fair CLR 75 30.6 19% 76 29.97 0.0
07 00:55 N 7 10.00 Fair CLR 75.7 30 87.8 75.7 19% 76 29.96 0.0
07 00:35 N 8 10.00 Fair CLR 76.1 29.5 18% 76 29.96 0.0
07 00:15 N 8 10.00 Fair CLR 76.3 29.5 18% 76 29.94 0.0
06 23:55 N 6 10.00 Fair CLR 77 29.8 18% 77 29.94 0.0
06 23:35 N 9 10.00 Fair CLR 79 30.2 17% 78 29.94 0.0
06 23:15 N 8 10.00 Fair CLR 76.1 29.7 18% 76 29.94 0.0
06 22:55 N 5 10.00 Fair CLR 78.3 30.2 17% 77 29.93 0.0
06 22:35 NE 6 10.00 Fair CLR 78.8 29.8 17% 78 29.93 0.0
06 22:15 NE 7 10.00 Fair CLR 79 29.1 16% 78 29.93 0.0
06 21:35 NE 3 10.00 Fair CLR 81.1 29.1 15% 79 29.91 0.0
06 21:15 NE 6 10.00 Fair CLR 82.4 29.1 14% 80 29.9 0.0
06 20:55 NE 3 10.00 Fair CLR 82.9 28.9 14% 80 29.9 0.0
06 20:35 E 6 10.00 Fair CLR 84.2 29.1 13% 81 29.9 0.0
06 20:15 E 7 10.00 Fair CLR 85.3 29.3 13% 82 29.89 0.0
06 19:55 E 9 10.00 Fair CLR 86 29.3 13% 83 29.88 0.0
06 19:35 E 9 10.00 Fair CLR 86.7 29.5 13% 83 29.88 0.0
06 19:15 E 7 10.00 Fair CLR 86.4 29.3 13% 83 29.87 0.0
06 18:55 E 5 10.00 Fair CLR 87.8 28.9 88 81 12% 84 29.87 0.0
06 18:35 Calm 10.00 Fair CLR 87.8 29.1 12% 84 29.87 0.0
06 18:15 NW 6 10.00 Fair CLR 87.6 27.5 11% 84 29.87 0.0
06 17:55 S 3 10.00 Fair CLR 87.1 28.4 12% 83 29.88 0.0
06 17:35 E 6 10.00 Fair CLR 87.3 29.3 12% 84 29.88 0.0
06 16:55 Calm 10.00 Fair CLR 85.5 30.2 14% 82 29.9 0.0
06 16:35 S 8 10.00 Fair CLR 85.6 30.4 14% 82 29.9 0.0
06 16:15 S 3 10.00 Fair CLR 85.8 30.7 14% 82 29.91 0.0
06 15:55 Calm 10.00 Fair CLR 85.3 30.7 14% 82 29.92 0.0
06 15:35 SW 12 10.00 Fair CLR 85.6 30.7 14% 82 29.93 0.0
06 15:15 S 5 G 18 10.00 Fair CLR 85.8 30 13% 82 29.93 0.0
06 14:55 SW 6 G 18 10.00 Fair CLR 84.9 30.6 14% 82 29.93 0.0
06 14:35 SW 7 10.00 Fair CLR 84.9 31.1 14% 82 29.94 0.0
06 14:15 SW 7 10.00 Fair CLR 83.8 31.5 15% 81 29.94 0.0
06 13:55 W 7 10.00 Fair CLR 84 32.5 16% 81 29.95 0.0
06 13:35 Calm 10.00 Fair CLR 82.6 32.9 17% 80 29.96 0.0
06 13:15 SW 14 10.00 Fair CLR 83.7 33.8 17% 81 29.97 0.0
06 12:55 Calm 10.00 Fair CLR 80.8 32.9 82.8 70.2 18% 79 29.97 0.0
06 12:35 W 12 10.00 Fair CLR 82.6 33.3 17% 80 29.97 0.0
06 12:15 SW 8 10.00 Fair CLR 81.9 33.8 18% 80 29.98 0.0
06 11:55 NW 6 10.00 Fair CLR 81.3 33.6 18% 79 29.98 0.0
06 11:35 NW 10 10.00 Fair CLR 80.6 34.5 19% 79 29.98 0.0
06 11:15 W 13 G 17 10.00 Fair CLR 79.9 34.7 20% 78 29.98 0.0
06 10:55 W 14 G 18 10.00 Fair CLR 79.3 35.2 20% 78 29.97 0.0
06 10:35 W 12 10.00 Fair CLR 79 35.8 21% 78 29.97 0.0
Date Time (cdt) Wind (mph) Vis. (mi.) Weather Sky Cond. Air Dwpt Max. Min. Relative Humidity Wind Chill (°F) Heat Index (°F) altimeter (in) sea level (mb) 1 hr 3 hr 6 hr
6 hour
Temperature (ºF) Pressure Precipitation (in)